Coppock, Iowa
Current Conditions -  °F | °C
As of 6:35 AM on Saturday 20 Dec 2014 (Local Time) from KAWG Reporting Station
Haze Haze  
Wind Chill: 26°   Ceiling: 800
Heat Index: 32°   Visibility: 5mi
Dew Point: 32°   Wind: 6mph
Humidity: 100%   Direction: 160°SSE
Pressure: 30.22"   Gusts: NA
Location:  41.1406°N, 91.6635°W
Report Text: KAWG 201235Z AUTO 16005KT 5SM BR OVC008 M00/M00 A3022 RMK AO2
Loading
Personal Weather Stations






























Interactive Weather Map New forecast layout! Learn more

10-Day Weather Forecast

Advertisements
Track Severe Weather on mobile